createdAt,value
2018-04-29T00:00:17.571Z,6.60
2018-04-29T00:03:40.769Z,5.07
2018-04-29T00:07:03.977Z,6.90
2018-04-29T00:10:26.418Z,5.53
2018-04-29T00:13:48.866Z,5.80
2018-04-29T00:17:12.081Z,5.50
2018-04-29T00:20:34.522Z,5.17
2018-04-29T00:23:57.730Z,4.50
2018-04-29T00:27:20.179Z,5.50
2018-04-29T00:30:43.389Z,4.93
2018-04-29T00:34:05.830Z,4.77
2018-04-29T00:37:28.269Z,4.77
2018-04-29T00:40:51.482Z,4.87
2018-04-29T00:44:13.913Z,4.90
2018-04-29T00:47:36.353Z,5.20
2018-04-29T00:50:58.797Z,5.23
2018-04-29T00:54:21.237Z,4.27
2018-04-29T00:57:43.682Z,6.37
2018-04-29T01:01:06.894Z,3.97
2018-04-29T01:04:29.331Z,5.40
2018-04-29T01:07:52.534Z,5.50
2018-04-29T01:11:14.997Z,5.60
2018-04-29T01:14:37.506Z,5.80
2018-04-29T01:17:59.954Z,7.50
2018-04-29T01:21:22.394Z,5.87
2018-04-29T01:24:44.833Z,7.60
2018-04-29T01:28:08.057Z,7.80
2018-04-29T01:31:30.499Z,7.00
2018-04-29T01:34:52.933Z,6.80
2018-04-29T01:38:15.385Z,6.80
2018-04-29T01:41:37.825Z,6.53
2018-04-29T01:45:00.273Z,6.73
2018-04-29T01:48:22.709Z,7.80
2018-04-29T01:51:45.915Z,6.83
2018-04-29T01:55:08.378Z,6.87
2018-04-29T01:58:30.847Z,6.83
2018-04-29T02:01:53.274Z,6.50
2018-04-29T02:05:15.718Z,6.73
2018-04-29T02:08:38.167Z,6.20
2018-04-29T02:12:00.605Z,6.60
2018-04-29T02:15:23.050Z,6.93
2018-04-29T02:18:46.254Z,5.63
2018-04-29T02:22:08.699Z,7.13
2018-04-29T02:25:31.914Z,7.00
2018-04-29T02:28:54.358Z,7.03
2018-04-29T02:32:16.794Z,7.23
2018-04-29T02:35:39.242Z,7.80
2018-04-29T02:39:01.696Z,7.10
2018-04-29T02:42:24.127Z,7.00
2018-04-29T02:45:46.566Z,7.50
2018-04-29T02:49:09.779Z,7.47
2018-04-29T02:52:32.227Z,6.93
2018-04-29T02:59:30.062Z,7.47
2018-04-29T03:02:52.498Z,6.50
2018-04-29T03:06:14.936Z,7.00
2018-04-29T03:09:38.138Z,7.37
2018-04-29T03:13:00.582Z,6.37
2018-04-29T03:16:23.031Z,7.53
2018-04-29T03:19:45.470Z,6.73
2018-04-29T03:23:07.909Z,5.93
2018-04-29T03:26:31.122Z,6.20
2018-04-29T03:29:53.548Z,6.60
2018-04-29T03:33:15.993Z,6.60
2018-04-29T03:36:38.441Z,6.70
2018-04-29T03:40:00.877Z,7.37
2018-04-29T03:43:23.308Z,6.73
2018-04-29T03:46:45.749Z,6.23
2018-04-29T03:50:08.185Z,6.23
2018-04-29T03:53:30.625Z,5.23
2018-04-29T04:01:01.044Z,5.53
2018-04-29T04:04:23.477Z,5.70
2018-04-29T04:07:46.699Z,5.83
2018-04-29T04:11:09.132Z,4.97
2018-04-29T04:14:32.345Z,6.10
2018-04-29T04:17:54.782Z,6.43
2018-04-29T04:21:17.983Z,6.53
2018-04-29T04:24:40.421Z,6.70
2018-04-29T04:28:03.634Z,5.47
2018-04-29T04:31:26.069Z,6.40
2018-04-29T04:34:49.279Z,6.20
2018-04-29T04:38:11.723Z,5.57
2018-04-29T04:41:34.921Z,6.43
2018-04-29T04:44:57.389Z,6.43
2018-04-29T04:48:19.833Z,7.40
2018-04-29T04:51:43.041Z,6.63
2018-04-29T04:55:05.486Z,5.63
2018-04-29T04:58:28.718Z,5.90
2018-04-29T05:01:51.153Z,5.97
2018-04-29T05:05:13.618Z,5.40
2018-04-29T05:08:36.055Z,5.87
2018-04-29T05:11:59.270Z,6.20
2018-04-29T05:15:21.705Z,6.27
2018-04-29T05:18:44.930Z,5.73
2018-04-29T05:22:07.438Z,6.20
2018-04-29T05:25:29.821Z,6.53
2018-04-29T05:28:53.029Z,6.40
2018-04-29T05:32:15.461Z,6.40
2018-04-29T05:35:38.688Z,6.10
2018-04-29T05:39:01.124Z,5.63
2018-04-29T05:42:24.321Z,6.80
2018-04-29T05:45:46.753Z,6.20
2018-04-29T05:49:09.958Z,6.50
2018-04-29T05:52:32.397Z,6.60
2018-04-29T05:55:54.837Z,6.37
2018-04-29T05:59:18.042Z,6.60
2018-04-29T06:02:40.481Z,6.87
2018-04-29T06:06:02.922Z,6.47
2018-04-29T06:09:25.366Z,6.73
2018-04-29T06:12:47.807Z,7.03
2018-04-29T06:16:11.005Z,6.43
2018-04-29T06:19:34.218Z,6.73
2018-04-29T06:22:56.658Z,6.33
2018-04-29T06:26:19.111Z,6.97
2018-04-29T06:29:41.554Z,7.33
2018-04-29T06:33:03.989Z,6.40
2018-04-29T06:36:26.429Z,6.13
2018-04-29T06:39:48.872Z,6.83
2018-04-29T06:43:12.078Z,7.00
2018-04-29T06:46:34.585Z,7.80
2018-04-29T06:49:57.025Z,7.10
2018-04-29T06:53:19.471Z,7.40
2018-04-29T06:56:41.907Z,6.77
2018-04-29T07:00:05.119Z,7.37
2018-04-29T07:03:27.562Z,6.63
2018-04-29T07:06:50.764Z,5.47
2018-04-29T07:10:13.209Z,6.77
2018-04-29T07:13:36.414Z,6.73
2018-04-29T07:16:58.854Z,7.77
2018-04-29T07:20:22.057Z,7.37
2018-04-29T07:23:44.495Z,7.07
2018-04-29T07:27:07.695Z,7.10
2018-04-29T07:30:30.137Z,7.70
2018-04-29T07:33:52.577Z,7.37
2018-04-29T07:37:15.108Z,6.80
2018-04-29T07:40:37.538Z,7.87
2018-04-29T07:44:00.754Z,6.73
2018-04-29T07:47:23.189Z,7.83
2018-04-29T07:50:46.398Z,8.43
2018-04-29T07:54:08.867Z,7.63
2018-04-29T07:57:31.301Z,6.93
2018-04-29T08:00:54.506Z,7.10
2018-04-29T08:04:16.950Z,8.23
2018-04-29T08:07:40.149Z,7.50
2018-04-29T08:11:02.590Z,8.00
2018-04-29T08:14:25.798Z,7.50
2018-04-29T08:17:48.233Z,7.40
2018-04-29T08:21:10.673Z,7.93
2018-04-29T08:24:33.109Z,6.80
2018-04-29T08:27:55.566Z,7.77
2018-04-29T08:31:18.014Z,7.23
2018-04-29T08:34:41.218Z,7.37
2018-04-29T08:38:03.661Z,7.90
2018-04-29T08:41:26.853Z,7.17
2018-04-29T08:44:49.293Z,7.03
2018-04-29T08:48:12.505Z,7.53
2018-04-29T08:51:34.941Z,6.97
2018-04-29T08:54:58.236Z,7.80
2018-04-29T08:58:20.601Z,7.87
2018-04-29T09:01:43.851Z,7.63
2018-04-29T09:05:06.247Z,8.33
2018-04-29T09:08:29.451Z,7.50
2018-04-29T09:11:51.881Z,8.13
2018-04-29T09:15:14.322Z,8.60
2018-04-29T09:18:36.769Z,8.90
2018-04-29T09:21:59.214Z,7.77
2018-04-29T09:25:21.725Z,9.10
2018-04-29T09:28:44.858Z,8.40
2018-04-29T09:32:07.297Z,8.07
2018-04-29T09:35:30.570Z,8.57
2018-04-29T09:38:52.961Z,8.47
2018-04-29T09:42:15.389Z,8.77
2018-04-29T09:45:37.834Z,8.33
2018-04-29T09:49:00.282Z,8.30
2018-04-29T09:52:22.713Z,7.73
2018-04-29T09:55:45.159Z,8.93
2018-04-29T09:59:08.375Z,8.30
2018-04-29T10:02:31.770Z,7.83
2018-04-29T10:05:54.210Z,8.23
2018-04-29T10:09:17.418Z,7.57
2018-04-29T10:12:39.858Z,8.23
2018-04-29T10:16:02.301Z,7.63
2018-04-29T10:19:24.742Z,7.37
2018-04-29T10:22:47.175Z,7.50
2018-04-29T10:26:09.621Z,7.60
2018-04-29T10:29:32.061Z,7.07
2018-04-29T10:32:54.533Z,7.90
2018-04-29T10:36:16.954Z,7.87
2018-04-29T10:39:40.153Z,6.93
2018-04-29T10:43:02.603Z,8.07
2018-04-29T10:46:25.043Z,7.60
2018-04-29T10:49:47.487Z,7.13
2018-04-29T10:53:10.697Z,7.70
2018-04-29T10:56:33.135Z,6.90
2018-04-29T10:59:56.439Z,6.23
2018-04-29T11:03:18.868Z,6.50
2018-04-29T11:06:41.350Z,5.67
2018-04-29T11:10:04.558Z,5.83
2018-04-29T11:13:27.046Z,5.20
2018-04-29T11:16:49.481Z,5.57
2018-04-29T11:20:11.922Z,5.57
2018-04-29T11:23:35.120Z,5.43
2018-04-29T11:26:57.565Z,5.43
2018-04-29T11:30:20.776Z,5.73
2018-04-29T11:33:43.201Z,5.13
2018-04-29T11:37:06.415Z,4.43
2018-04-29T11:40:28.932Z,4.33
2018-04-29T11:43:52.062Z,4.60
2018-04-29T11:47:14.537Z,5.13
2018-04-29T11:50:36.977Z,4.10
2018-04-29T11:54:00.246Z,4.17
2018-04-29T11:57:22.617Z,4.27
2018-04-29T12:00:45.831Z,4.40
2018-04-29T12:04:08.289Z,4.63
2018-04-29T12:07:30.729Z,4.60
2018-04-29T12:10:53.937Z,3.93
2018-04-29T12:14:16.381Z,4.40
2018-04-29T12:17:39.585Z,4.40
2018-04-29T12:21:02.033Z,4.60
2018-04-29T12:24:25.234Z,4.60
2018-04-29T12:27:47.682Z,4.47
2018-04-29T12:31:10.889Z,4.23
2018-04-29T12:34:33.349Z,4.10
2018-04-29T12:37:55.779Z,4.17
2018-04-29T12:41:18.219Z,3.53
2018-04-29T12:44:40.649Z,3.63
2018-04-29T12:48:03.093Z,3.90
2018-04-29T12:51:25.529Z,3.90
2018-04-29T12:54:47.977Z,3.77
2018-04-29T12:58:10.420Z,3.93
2018-04-29T13:01:32.862Z,4.03
2018-04-29T13:04:55.310Z,3.93
2018-04-29T13:08:18.513Z,4.60
2018-04-29T13:11:40.957Z,4.03
2018-04-29T13:15:04.169Z,3.53
2018-04-29T13:18:26.601Z,3.80
2018-04-29T13:21:49.862Z,3.00
2018-04-29T13:25:12.249Z,3.73
2018-04-29T13:28:35.448Z,3.70
2018-04-29T13:31:57.889Z,4.00
2018-04-29T13:35:21.092Z,4.23
2018-04-29T13:38:43.530Z,3.80
2018-04-29T13:42:06.053Z,3.87
2018-04-29T13:45:28.431Z,3.70
2018-04-29T13:48:50.869Z,3.83
2018-04-29T13:52:13.342Z,3.17
2018-04-29T13:55:35.758Z,3.83
2018-04-29T13:58:58.961Z,7.27
2018-04-29T14:02:22.169Z,4.30
2018-04-29T14:05:44.624Z,3.53
2018-04-29T14:09:07.060Z,3.93
2018-04-29T14:12:30.348Z,3.90
2018-04-29T14:15:52.722Z,3.97
2018-04-29T14:19:15.160Z,4.93
2018-04-29T14:22:37.597Z,3.70
2018-04-29T14:26:00.033Z,4.10
2018-04-29T14:29:22.473Z,3.60
2018-04-29T14:32:45.685Z,5.90
2018-04-29T14:36:08.129Z,4.10
2018-04-29T14:39:30.566Z,3.70
2018-04-29T14:42:53.010Z,4.20
2018-04-29T14:46:15.465Z,4.60
2018-04-29T14:49:38.005Z,13.80
2018-04-29T14:53:00.350Z,4.70
2018-04-29T14:56:23.562Z,5.00
2018-04-29T14:59:46.001Z,5.57
2018-04-29T15:03:08.437Z,4.30
2018-04-29T15:06:30.884Z,4.00
2018-04-29T15:09:53.380Z,4.27
2018-04-29T15:13:15.761Z,4.23
2018-04-29T15:16:38.201Z,4.03
2018-04-29T15:20:01.409Z,4.47
2018-04-29T15:23:23.845Z,4.40
2018-04-29T15:26:46.294Z,4.40
2018-04-29T15:30:08.725Z,4.07
2018-04-29T15:33:31.169Z,4.57
2018-04-29T15:36:54.671Z,18.90
2018-04-29T15:40:17.338Z,4.27
2018-04-29T15:43:39.869Z,4.10
2018-04-29T15:47:03.190Z,6.10
2018-04-29T15:50:25.625Z,4.50
2018-04-29T15:53:48.841Z,4.80
2018-04-29T15:57:11.284Z,4.63
2018-04-29T16:00:34.481Z,5.50
2018-04-29T16:03:56.949Z,4.47
2018-04-29T16:07:19.385Z,6.37
2018-04-29T16:10:42.590Z,4.80
2018-04-29T16:14:05.026Z,4.83
2018-04-29T16:17:28.234Z,4.50
2018-04-29T16:20:50.680Z,5.60
2018-04-29T16:24:13.882Z,5.03
2018-04-29T16:27:36.321Z,4.70
2018-04-29T16:30:59.531Z,5.63
2018-04-29T16:34:22.003Z,7.17
2018-04-29T16:37:44.446Z,5.53
2018-04-29T16:41:07.653Z,4.37
2018-04-29T16:44:30.090Z,5.63
2018-04-29T16:47:53.358Z,4.80
2018-04-29T16:51:15.818Z,5.00
2018-04-29T16:54:38.271Z,4.97
2018-04-29T16:58:00.735Z,4.03
2018-04-29T17:01:23.984Z,4.73
2018-04-29T17:04:47.154Z,4.23
2018-04-29T17:08:09.593Z,5.07
2018-04-29T17:11:32.806Z,8.80
2018-04-29T17:14:55.244Z,3.97
2018-04-29T17:18:18.458Z,7.77
2018-04-29T17:21:40.897Z,4.40
2018-04-29T17:25:04.098Z,3.90
2018-04-29T17:28:26.546Z,4.63
2018-04-29T17:31:49.753Z,3.77
2018-04-29T17:35:12.196Z,4.10
2018-04-29T17:38:35.397Z,3.90
2018-04-29T17:41:57.837Z,3.90
2018-04-29T17:45:21.041Z,3.30
2018-04-29T17:48:43.478Z,3.93
2018-04-29T17:52:06.686Z,3.50
2018-04-29T17:55:29.126Z,3.90
2018-04-29T17:58:52.333Z,3.67
2018-04-29T18:02:14.776Z,3.10
2018-04-29T18:05:37.979Z,3.43
2018-04-29T18:09:00.417Z,3.70
2018-04-29T18:12:22.865Z,3.03
2018-04-29T18:15:45.659Z,3.03
2018-04-29T18:19:08.370Z,3.27
2018-04-29T18:22:31.122Z,4.07
2018-04-29T18:25:53.743Z,3.07
2018-04-29T18:29:16.206Z,3.10
2018-04-29T18:32:38.654Z,3.00
2018-04-29T18:36:01.093Z,3.40
2018-04-29T18:39:23.531Z,3.00
2018-04-29T18:42:46.737Z,3.17
2018-04-29T18:46:09.187Z,3.07
2018-04-29T18:49:32.412Z,3.10
2018-04-29T18:52:54.852Z,2.83
2018-04-29T18:56:17.361Z,3.00
2018-04-29T18:59:39.723Z,2.90
2018-04-29T19:03:02.177Z,2.87
2018-04-29T19:06:24.610Z,3.00
2018-04-29T19:09:47.055Z,2.97
2018-04-29T19:13:10.265Z,3.33
2018-04-29T19:16:32.701Z,3.00
2018-04-29T19:19:55.910Z,3.10
2018-04-29T19:23:18.353Z,3.23
2018-04-29T19:26:41.554Z,3.23
2018-04-29T19:30:03.996Z,3.20
2018-04-29T19:33:27.239Z,3.90
2018-04-29T19:36:49.670Z,3.87
2018-04-29T19:40:12.110Z,3.60
2018-04-29T19:43:35.318Z,3.50
2018-04-29T19:46:57.754Z,3.77
2018-04-29T19:50:20.953Z,3.80
2018-04-29T19:53:43.418Z,3.97
2018-04-29T19:57:05.854Z,3.67
2018-04-29T20:00:28.298Z,3.97
2018-04-29T20:03:51.511Z,3.80
2018-04-29T20:07:13.942Z,4.17
2018-04-29T20:10:36.385Z,3.60
2018-04-29T20:13:58.821Z,3.67
2018-04-29T20:17:22.026Z,3.83
2018-04-29T20:20:44.463Z,3.40
2018-04-29T20:24:07.667Z,4.00
2018-04-29T20:27:30.115Z,3.77
2018-04-29T20:30:53.325Z,3.80
2018-04-29T20:34:15.774Z,3.67
2018-04-29T20:37:38.225Z,3.60
2018-04-29T20:41:00.641Z,3.57
2018-04-29T20:44:23.091Z,3.70
2018-04-29T20:47:45.544Z,3.90
2018-04-29T20:51:07.986Z,4.10
2018-04-29T20:54:31.201Z,3.43
2018-04-29T20:57:53.638Z,3.43
2018-04-29T21:01:16.069Z,3.17
2018-04-29T21:04:38.513Z,3.33
2018-04-29T21:08:00.963Z,4.30
2018-04-29T21:11:23.401Z,3.37
2018-04-29T21:14:45.842Z,3.70
2018-04-29T21:18:09.163Z,3.97
2018-04-29T21:21:31.585Z,3.53
2018-04-29T21:24:54.029Z,4.07
2018-04-29T21:28:16.478Z,3.93
2018-04-29T21:31:38.924Z,3.63
2018-04-29T21:35:01.355Z,3.67
2018-04-29T21:38:24.570Z,3.53
2018-04-29T21:41:47.017Z,2.87
2018-04-29T21:45:10.217Z,3.03
2018-04-29T21:48:32.657Z,3.77
2018-04-29T21:51:55.862Z,2.83
2018-04-29T21:55:18.312Z,2.90
2018-04-29T21:58:41.513Z,2.80
2018-04-29T22:02:04.874Z,3.40
2018-04-29T22:05:28.082Z,3.20
2018-04-29T22:08:50.526Z,2.90
2018-04-29T22:12:13.730Z,2.80
2018-04-29T22:15:36.172Z,3.43
2018-04-29T22:18:59.382Z,2.90
2018-04-29T22:22:21.818Z,2.60
2018-04-29T22:25:45.030Z,2.50
2018-04-29T22:29:07.477Z,2.57
2018-04-29T22:32:29.914Z,2.50
2018-04-29T22:35:52.353Z,2.40
2018-04-29T22:39:14.801Z,2.20
2018-04-29T22:42:37.229Z,2.23
2018-04-29T22:45:59.678Z,2.57
2018-04-29T22:49:22.886Z,2.20
2018-04-29T22:52:45.363Z,2.40
2018-04-29T22:56:07.789Z,2.10
2018-04-29T22:59:30.998Z,2.33
2018-04-29T23:02:53.433Z,2.30
2018-04-29T23:06:15.936Z,2.63
2018-04-29T23:09:38.370Z,2.20
2018-04-29T23:13:01.566Z,2.40
2018-04-29T23:16:24.021Z,2.10
2018-04-29T23:19:47.230Z,2.27
2018-04-29T23:23:09.666Z,2.87
2018-04-29T23:26:32.870Z,2.30
2018-04-29T23:29:55.310Z,2.03
2018-04-29T23:33:18.510Z,2.63
2018-04-29T23:36:41.716Z,2.20
2018-04-29T23:40:04.171Z,1.67
2018-04-29T23:43:26.598Z,2.27
2018-04-29T23:46:49.038Z,2.53
2018-04-29T23:50:11.481Z,2.83
2018-04-29T23:53:33.918Z,2.70
2018-04-29T23:56:56.362Z,2.53
